General Paz, Argentina
Current Conditions -  °F | °C
As of 2:00 PM on Saturday 20 Dec 2014 (Local Time) from SARC Reporting Station
Few Clouds Few Clouds  
Wind Chill: 95°   Ceiling: Unl
Heat Index: 103°   Visibility: 6mi
Dew Point: 72°   Wind: 21mph
Humidity: 47%   Direction: 360°N
Pressure: 29.47"   Gusts: NA
Location:  27.75°S, 57.62°W
Report Text: SARC 201700Z 36018KT 9999 FEW025 FEW056CB35/22 Q0998
Loading
Personal Weather Stations






























Interactive Weather Map New forecast layout! Learn more

10-Day Weather Forecast

Advertisements
Track Severe Weather on mobile